sensor_id;sensor_type;location;lat;lon;timestamp;pressure;altitude;pressure_sealevel;temperature;humidity
55914;BME280;58179;48.776;9.124;2022-09-17T00:00:56;97002.38;;;9.36;100.00
55914;BME280;58179;48.776;9.124;2022-09-17T00:03:24;97002.38;;;9.36;100.00
55914;BME280;58179;48.776;9.124;2022-09-17T00:05:58;96993.88;;;9.34;100.00
55914;BME280;58179;48.776;9.124;2022-09-17T00:08:25;96988.34;;;9.36;100.00
55914;BME280;58179;48.776;9.124;2022-09-17T00:10:52;96994.13;;;9.32;100.00
55914;BME280;58179;48.776;9.124;2022-09-17T00:13:18;96990.16;;;9.30;100.00
55914;BME280;58179;48.776;9.124;2022-09-17T00:15:45;96994.34;;;9.26;100.00
55914;BME280;58179;48.776;9.124;2022-09-17T00:18:13;96995.94;;;9.27;100.00
55914;BME280;58179;48.776;9.124;2022-09-17T00:20:40;96993.03;;;9.23;100.00
55914;BME280;58179;48.776;9.124;2022-09-17T00:23:07;96993.56;;;9.25;100.00
55914;BME280;58179;48.776;9.124;2022-09-17T00:25:36;97004.63;;;9.22;100.00
55914;BME280;58179;48.776;9.124;2022-09-17T00:28:04;96999.56;;;9.16;100.00
55914;BME280;58179;48.776;9.124;2022-09-17T00:30:30;97008.56;;;9.20;100.00
55914;BME280;58179;48.776;9.124;2022-09-17T00:32:56;97001.69;;;9.19;100.00
55914;BME280;58179;48.776;9.124;2022-09-17T00:35:23;97010.19;;;9.26;100.00
55914;BME280;58179;48.776;9.124;2022-09-17T00:37:48;96997.84;;;9.31;100.00
55914;BME280;58179;48.776;9.124;2022-09-17T00:40:15;97006.56;;;9.32;100.00
55914;BME280;58179;48.776;9.124;2022-09-17T00:42:41;97002.91;;;9.38;100.00
55914;BME280;58179;48.776;9.124;2022-09-17T00:45:09;97001.56;;;9.36;100.00
55914;BME280;58179;48.776;9.124;2022-09-17T00:47:39;96995.47;;;9.35;100.00
55914;BME280;58179;48.776;9.124;2022-09-17T00:50:11;96998.94;;;9.36;100.00
55914;BME280;58179;48.776;9.124;2022-09-17T00:52:43;96992.84;;;9.35;100.00
55914;BME280;58179;48.776;9.124;2022-09-17T00:55:15;96996.00;;;9.32;100.00
55914;BME280;58179;48.776;9.124;2022-09-17T00:57:43;97000.97;;;9.28;100.00
55914;BME280;58179;48.776;9.124;2022-09-17T01:00:13;96995.16;;;9.26;100.00
55914;BME280;58179;48.776;9.124;2022-09-17T01:02:41;96995.56;;;9.13;100.00
55914;BME280;58179;48.776;9.124;2022-09-17T01:05:08;97008.47;;;9.10;100.00
55914;BME280;58179;48.776;9.124;2022-09-17T01:07:52;97006.84;;;9.04;100.00
55914;BME280;58179;48.776;9.124;2022-09-17T01:10:47;97004.94;;;8.99;100.00
55914;BME280;58179;48.776;9.124;2022-09-17T01:13:23;96999.63;;;8.94;100.00
55914;BME280;58179;48.776;9.124;2022-09-17T01:16:04;97007.59;;;8.99;100.00
55914;BME280;58179;48.776;9.124;2022-09-17T01:18:44;97001.31;;;9.05;100.00
55914;BME280;58179;48.776;9.124;2022-09-17T01:21:39;97009.44;;;8.99;100.00
55914;BME280;58179;48.776;9.124;2022-09-17T01:24:46;97009.19;;;9.00;100.00
55914;BME280;58179;48.776;9.124;2022-09-17T01:27:57;97012.06;;;8.99;100.00
55914;BME280;58179;48.776;9.124;2022-09-17T01:31:00;97010.72;;;8.96;100.00
55914;BME280;58179;48.776;9.124;2022-09-17T01:33:38;97010.69;;;8.91;100.00
55914;BME280;58179;48.776;9.124;2022-09-17T01:36:26;97014.91;;;8.92;100.00
55914;BME280;58179;48.776;9.124;2022-09-17T01:39:00;97024.91;;;8.90;100.00
55914;BME280;58179;48.776;9.124;2022-09-17T01:41:32;97029.94;;;8.91;100.00
55914;BME280;58179;48.776;9.124;2022-09-17T01:44:06;97030.25;;;8.95;100.00
55914;BME280;58179;48.776;9.124;2022-09-17T01:46:41;97029.47;;;8.95;100.00
55914;BME280;58179;48.776;9.124;2022-09-17T01:49:10;97035.34;;;9.02;100.00
55914;BME280;58179;48.776;9.124;2022-09-17T01:51:42;97036.13;;;9.02;100.00
55914;BME280;58179;48.776;9.124;2022-09-17T01:54:16;97033.53;;;9.07;100.00
55914;BME280;58179;48.776;9.124;2022-09-17T01:56:49;97026.34;;;9.03;100.00
55914;BME280;58179;48.776;9.124;2022-09-17T01:59:21;97031.47;;;9.09;100.00
55914;BME280;58179;48.776;9.124;2022-09-17T02:01:53;97036.78;;;9.14;100.00
55914;BME280;58179;48.776;9.124;2022-09-17T02:04:27;97030.97;;;9.17;100.00
55914;BME280;58179;48.776;9.124;2022-09-17T02:07:01;97035.78;;;9.20;100.00
55914;BME280;58179;48.776;9.124;2022-09-17T02:09:34;97041.25;;;9.14;100.00
55914;BME280;58179;48.776;9.124;2022-09-17T02:12:05;97030.44;;;9.15;100.00
55914;BME280;58179;48.776;9.124;2022-09-17T02:14:35;97029.09;;;9.13;100.00
55914;BME280;58179;48.776;9.124;2022-09-17T02:17:09;97029.09;;;9.13;100.00
55914;BME280;58179;48.776;9.124;2022-09-17T02:19:37;97033.09;;;9.15;100.00
55914;BME280;58179;48.776;9.124;2022-09-17T02:22:13;97033.88;;;9.16;100.00
55914;BME280;58179;48.776;9.124;2022-09-17T02:24:51;97033.38;;;9.19;100.00
55914;BME280;58179;48.776;9.124;2022-09-17T02:27:29;97029.66;;;9.15;100.00
55914;BME280;58179;48.776;9.124;2022-09-17T02:29:59;97022.53;;;9.15;100.00
55914;BME280;58179;48.776;9.124;2022-09-17T02:32:27;97022.81;;;9.19;100.00
55914;BME280;58179;48.776;9.124;2022-09-17T02:34:53;97024.13;;;9.16;100.00
55914;BME280;58179;48.776;9.124;2022-09-17T02:37:19;97028.09;;;9.19;100.00
55914;BME280;58179;48.776;9.124;2022-09-17T02:39:45;97022.53;;;9.15;100.00
55914;BME280;58179;48.776;9.124;2022-09-17T02:42:27;97023.56;;;9.14;100.00
55914;BME280;58179;48.776;9.124;2022-09-17T02:45:03;97023.81;;;9.13;100.00
55914;BME280;58179;48.776;9.124;2022-09-17T02:47:51;97026.94;;;9.10;100.00
55914;BME280;58179;48.776;9.124;2022-09-17T02:50:57;97014.53;;;9.10;100.00
55914;BME280;58179;48.776;9.124;2022-09-17T02:53:36;97011.38;;;9.08;100.00
55914;BME280;58179;48.776;9.124;2022-09-17T02:56:18;97019.31;;;9.08;100.00
55914;BME280;58179;48.776;9.124;2022-09-17T02:58:50;97020.41;;;9.17;100.00
55914;BME280;58179;48.776;9.124;2022-09-17T03:01:24;97006.78;;;8.99;100.00
55914;BME280;58179;48.776;9.124;2022-09-17T03:03:55;97012.06;;;8.99;100.00
55914;BME280;58179;48.776;9.124;2022-09-17T03:06:25;97006.19;;;8.91;100.00
55914;BME280;58179;48.776;9.124;2022-09-17T03:08:52;97015.34;;;8.84;100.00
55914;BME280;58179;48.776;9.124;2022-09-17T03:11:18;97011.88;;;8.78;100.00
55914;BME280;58179;48.776;9.124;2022-09-17T03:13:44;97007.31;;;8.74;100.00
55914;BME280;58179;48.776;9.124;2022-09-17T03:16:10;97016.03;;;8.74;100.00
55914;BME280;58179;48.776;9.124;2022-09-17T03:18:36;97008.63;;;8.71;100.00
55914;BME280;58179;48.776;9.124;2022-09-17T03:21:03;96999.16;;;8.75;100.00
55914;BME280;58179;48.776;9.124;2022-09-17T03:23:29;96999.16;;;8.75;100.00
55914;BME280;58179;48.776;9.124;2022-09-17T03:25:55;97007.63;;;8.77;100.00
55914;BME280;58179;48.776;9.124;2022-09-17T03:28:21;97007.03;;;8.70;100.00
55914;BME280;58179;48.776;9.124;2022-09-17T03:30:47;97015.19;;;8.69;100.00
55914;BME280;58179;48.776;9.124;2022-09-17T03:33:13;97018.91;;;8.73;100.00
55914;BME280;58179;48.776;9.124;2022-09-17T03:35:42;97015.75;;;8.71;100.00
55914;BME280;58179;48.776;9.124;2022-09-17T03:38:09;97018.44;;;8.76;100.00
55914;BME280;58179;48.776;9.124;2022-09-17T03:40:35;97017.97;;;8.79;100.00
55914;BME280;58179;48.776;9.124;2022-09-17T03:43:00;97021.41;;;8.79;100.00
55914;BME280;58179;48.776;9.124;2022-09-17T03:45:26;97020.53;;;8.74;100.00
55914;BME280;58179;48.776;9.124;2022-09-17T03:47:52;97022.63;;;8.72;100.00
55914;BME280;58179;48.776;9.124;2022-09-17T03:50:18;97032.66;;;8.75;100.00
55914;BME280;58179;48.776;9.124;2022-09-17T03:52:44;97028.63;;;8.67;100.00
55914;BME280;58179;48.776;9.124;2022-09-17T03:55:11;97034.41;;;8.64;100.00
55914;BME280;58179;48.776;9.124;2022-09-17T03:57:37;97030.09;;;8.58;100.00
55914;BME280;58179;48.776;9.124;2022-09-17T04:00:05;97034.66;;;8.63;100.00
55914;BME280;58179;48.776;9.124;2022-09-17T04:02:31;97047.84;;;8.63;100.00
55914;BME280;58179;48.776;9.124;2022-09-17T04:04:57;97043.84;;;8.60;100.00
55914;BME280;58179;48.776;9.124;2022-09-17T04:07:23;97049.97;;;8.66;100.00
55914;BME280;58179;48.776;9.124;2022-09-17T04:09:49;97053.38;;;8.61;100.00
55914;BME280;58179;48.776;9.124;2022-09-17T04:12:16;97056.00;;;8.61;100.00
55914;BME280;58179;48.776;9.124;2022-09-17T04:14:42;97050.72;;;8.61;100.00
55914;BME280;58179;48.776;9.124;2022-09-17T04:17:08;97045.94;;;8.58;100.00
55914;BME280;58179;48.776;9.124;2022-09-17T04:19:34;97045.09;;;8.52;100.00
55914;BME280;58179;48.776;9.124;2022-09-17T04:22:00;97046.53;;;8.65;100.00
55914;BME280;58179;48.776;9.124;2022-09-17T04:24:26;97041.69;;;8.57;100.00
55914;BME280;58179;48.776;9.124;2022-09-17T04:26:52;97038.28;;;8.57;100.00
55914;BME280;58179;48.776;9.124;2022-09-17T04:29:19;97034.06;;;8.56;100.00
55914;BME280;58179;48.776;9.124;2022-09-17T04:31:45;97033.69;;;8.47;100.00
55914;BME280;58179;48.776;9.124;2022-09-17T04:34:10;97037.13;;;8.47;100.00
55914;BME280;58179;48.776;9.124;2022-09-17T04:36:36;97046.31;;;8.45;100.00
55914;BME280;58179;48.776;9.124;2022-09-17T04:39:02;97052.34;;;8.40;100.00
55914;BME280;58179;48.776;9.124;2022-09-17T04:41:29;97058.66;;;8.39;100.00
55914;BME280;58179;48.776;9.124;2022-09-17T04:43:54;97064.78;;;8.45;100.00
55914;BME280;58179;48.776;9.124;2022-09-17T04:46:22;97074.06;;;8.47;100.00
55914;BME280;58179;48.776;9.124;2022-09-17T04:48:47;97074.06;;;8.47;100.00
55914;BME280;58179;48.776;9.124;2022-09-17T04:51:13;97076.00;;;8.57;100.00
55914;BME280;58179;48.776;9.124;2022-09-17T04:53:39;97075.69;;;8.53;100.00
55914;BME280;58179;48.776;9.124;2022-09-17T04:56:05;97083.13;;;8.57;100.00
55914;BME280;58179;48.776;9.124;2022-09-17T04:58:31;97075.50;;;8.60;100.00
55914;BME280;58179;48.776;9.124;2022-09-17T05:00:57;97077.13;;;8.61;100.00
55914;BME280;58179;48.776;9.124;2022-09-17T05:03:25;97074.84;;;8.70;100.00
55914;BME280;58179;48.776;9.124;2022-09-17T05:05:51;97080.84;;;8.65;100.00
55914;BME280;58179;48.776;9.124;2022-09-17T05:08:17;97086.13;;;8.65;100.00
55914;BME280;58179;48.776;9.124;2022-09-17T05:10:42;97080.84;;;8.65;100.00
55914;BME280;58179;48.776;9.124;2022-09-17T05:13:09;97078.72;;;8.62;100.00
55914;BME280;58179;48.776;9.124;2022-09-17T05:15:35;97082.94;;;8.63;100.00
55914;BME280;58179;48.776;9.124;2022-09-17T05:18:01;97079.50;;;8.63;100.00
55914;BME280;58179;48.776;9.124;2022-09-17T05:20:28;97081.63;;;8.66;100.00
55914;BME280;58179;48.776;9.124;2022-09-17T05:22:54;97075.41;;;8.72;100.00
55914;BME280;58179;48.776;9.124;2022-09-17T05:25:21;97081.91;;;8.64;100.00
55914;BME280;58179;48.776;9.124;2022-09-17T05:27:50;97082.69;;;8.65;100.00
55914;BME280;58179;48.776;9.124;2022-09-17T05:30:17;97081.44;;;8.72;100.00
55914;BME280;58179;48.776;9.124;2022-09-17T05:32:43;97076.69;;;8.69;100.00
55914;BME280;58179;48.776;9.124;2022-09-17T05:35:09;97081.34;;;8.62;100.00
55914;BME280;58179;48.776;9.124;2022-09-17T05:37:36;97086.00;;;8.55;100.00
55914;BME280;58179;48.776;9.124;2022-09-17T05:40:03;97086.81;;;8.56;100.00
55914;BME280;58179;48.776;9.124;2022-09-17T05:42:31;97092.28;;;8.49;100.00
55914;BME280;58179;48.776;9.124;2022-09-17T05:44:57;97097.28;;;8.50;100.00
55914;BME280;58179;48.776;9.124;2022-09-17T05:47:23;97086.13;;;8.43;100.00
55914;BME280;58179;48.776;9.124;2022-09-17T05:49:48;97084.59;;;8.47;100.00
55914;BME280;58179;48.776;9.124;2022-09-17T05:52:14;97080.59;;;8.45;100.00
55914;BME280;58179;48.776;9.124;2022-09-17T05:54:42;97093.22;;;8.43;100.00
55914;BME280;58179;48.776;9.124;2022-09-17T05:57:08;97092.44;;;8.42;100.00
55914;BME280;58179;48.776;9.124;2022-09-17T05:59:34;97101.22;;;8.48;100.00
55914;BME280;58179;48.776;9.124;2022-09-17T06:02:00;97107.31;;;8.48;100.00
55914;BME280;58179;48.776;9.124;2022-09-17T06:04:26;97104.47;;;8.55;100.00
55914;BME280;58179;48.776;9.124;2022-09-17T06:06:52;97116.63;;;8.56;100.00
55914;BME280;58179;48.776;9.124;2022-09-17T06:09:18;97110.38;;;8.62;100.00
55914;BME280;58179;48.776;9.124;2022-09-17T06:11:45;97115.47;;;8.69;100.00
55914;BME280;58179;48.776;9.124;2022-09-17T06:14:11;97123.44;;;8.74;100.00
55914;BME280;58179;48.776;9.124;2022-09-17T06:16:37;97124.22;;;8.74;100.00
55914;BME280;58179;48.776;9.124;2022-09-17T06:19:03;97123.81;;;8.82;100.00
55914;BME280;58179;48.776;9.124;2022-09-17T06:21:29;97118.06;;;8.85;100.00
55914;BME280;58179;48.776;9.124;2022-09-17T06:23:55;97124.19;;;8.91;100.00
55914;BME280;58179;48.776;9.124;2022-09-17T06:26:21;97127.66;;;8.97;100.00
55914;BME280;58179;48.776;9.124;2022-09-17T06:28:48;97131.28;;;8.90;100.00
55914;BME280;58179;48.776;9.124;2022-09-17T06:31:14;97128.22;;;8.99;100.00
55914;BME280;58179;48.776;9.124;2022-09-17T06:33:40;97126.75;;;9.08;100.00
55914;BME280;58179;48.776;9.124;2022-09-17T06:36:09;97127.75;;;9.02;100.00
55914;BME280;58179;48.776;9.124;2022-09-17T06:38:36;97130.13;;;9.03;100.00
55914;BME280;58179;48.776;9.124;2022-09-17T06:41:03;97136.75;;;9.06;100.00
55914;BME280;58179;48.776;9.124;2022-09-17T06:43:29;97136.72;;;9.01;100.00
55914;BME280;58179;48.776;9.124;2022-09-17T06:45:58;97142.50;;;9.03;100.00
55914;BME280;58179;48.776;9.124;2022-09-17T06:48:25;97136.00;;;9.10;100.00
55914;BME280;58179;48.776;9.124;2022-09-17T06:50:52;97137.31;;;9.08;100.00
55914;BME280;58179;48.776;9.124;2022-09-17T06:53:19;97149.13;;;9.27;100.00
55914;BME280;58179;48.776;9.124;2022-09-17T06:55:45;97146.56;;;9.32;100.00
55914;BME280;58179;48.776;9.124;2022-09-17T06:58:11;97147.59;;;9.31;100.00
55914;BME280;58179;48.776;9.124;2022-09-17T07:00:37;97153.78;;;9.42;100.00
55914;BME280;58179;48.776;9.124;2022-09-17T07:03:12;97152.72;;;9.43;100.00
55914;BME280;58179;48.776;9.124;2022-09-17T07:05:38;97152.28;;;9.51;100.00
55914;BME280;58179;48.776;9.124;2022-09-17T07:08:05;97154.59;;;9.47;100.00
55914;BME280;58179;48.776;9.124;2022-09-17T07:10:31;97148.47;;;9.42;100.00
55914;BME280;58179;48.776;9.124;2022-09-17T07:12:57;97156.47;;;9.47;100.00
55914;BME280;58179;48.776;9.124;2022-09-17T07:15:24;97156.94;;;9.39;100.00
55914;BME280;58179;48.776;9.124;2022-09-17T07:17:50;97164.34;;;9.42;100.00
55914;BME280;58179;48.776;9.124;2022-09-17T07:20:17;97162.44;;;9.37;100.00
55914;BME280;58179;48.776;9.124;2022-09-17T07:22:43;97165.81;;;9.32;100.00
55914;BME280;58179;48.776;9.124;2022-09-17T07:25:10;97162.75;;;9.41;100.00
55914;BME280;58179;48.776;9.124;2022-09-17T07:27:36;97174.31;;;9.35;100.00
55914;BME280;58179;48.776;9.124;2022-09-17T07:30:03;97167.63;;;9.27;100.00
55914;BME280;58179;48.776;9.124;2022-09-17T07:32:29;97178.31;;;9.15;100.00
55914;BME280;58179;48.776;9.124;2022-09-17T07:34:56;97178.63;;;9.19;100.00
55914;BME280;58179;48.776;9.124;2022-09-17T07:37:23;97174.88;;;9.15;100.00
55914;BME280;58179;48.776;9.124;2022-09-17T07:39:49;97181.25;;;9.19;100.00
55914;BME280;58179;48.776;9.124;2022-09-17T07:42:15;97184.94;;;9.18;100.00
55914;BME280;58179;48.776;9.124;2022-09-17T07:44:41;97184.59;;;9.09;100.00
55914;BME280;58179;48.776;9.124;2022-09-17T07:47:07;97183.47;;;9.05;100.00
55914;BME280;58179;48.776;9.124;2022-09-17T07:49:33;97188.94;;;8.99;100.00
55914;BME280;58179;48.776;9.124;2022-09-17T07:51:59;97190.50;;;8.95;100.00
55914;BME280;58179;48.776;9.124;2022-09-17T07:54:32;97192.38;;;8.99;100.00
55914;BME280;58179;48.776;9.124;2022-09-17T07:56:58;97197.97;;;9.03;100.00
55914;BME280;58179;48.776;9.124;2022-09-17T07:59:24;97192.25;;;9.11;100.00
55914;BME280;58179;48.776;9.124;2022-09-17T08:01:50;97195.78;;;9.16;100.00
55914;BME280;58179;48.776;9.124;2022-09-17T08:04:16;97202.16;;;9.20;100.00
55914;BME280;58179;48.776;9.124;2022-09-17T08:06:41;97203.75;;;9.21;100.00
55914;BME280;58179;48.776;9.124;2022-09-17T08:09:07;97201.66;;;9.23;100.00
55914;BME280;58179;48.776;9.124;2022-09-17T08:11:36;97206.34;;;9.16;100.00
55914;BME280;58179;48.776;9.124;2022-09-17T08:14:02;97209.81;;;9.22;100.00
55914;BME280;58179;48.776;9.124;2022-09-17T08:16:30;97206.44;;;9.26;100.00
55914;BME280;58179;48.776;9.124;2022-09-17T08:18:57;97214.16;;;9.33;100.00
55914;BME280;58179;48.776;9.124;2022-09-17T08:21:25;97210.47;;;9.34;100.00
55914;BME280;58179;48.776;9.124;2022-09-17T08:23:51;97216.81;;;9.33;100.00
55914;BME280;58179;48.776;9.124;2022-09-17T08:26:19;97208.44;;;9.41;100.00
55914;BME280;58179;48.776;9.124;2022-09-17T08:28:52;97207.41;;;9.42;100.00
55914;BME280;58179;48.776;9.124;2022-09-17T08:31:22;97208.63;;;9.35;100.00
55914;BME280;58179;48.776;9.124;2022-09-17T08:33:48;97215.03;;;9.39;100.00
55914;BME280;58179;48.776;9.124;2022-09-17T08:36:17;97204.88;;;9.52;100.00
55914;BME280;58179;48.776;9.124;2022-09-17T08:38:44;97216.28;;;9.58;100.00
55914;BME280;58179;48.776;9.124;2022-09-17T08:41:22;97212.91;;;9.62;100.00
55914;BME280;58179;48.776;9.124;2022-09-17T08:44:05;97212.31;;;9.82;100.00
55914;BME280;58179;48.776;9.124;2022-09-17T08:46:42;97209.63;;;9.77;100.00
55914;BME280;58179;48.776;9.124;2022-09-17T08:49:18;97215.44;;;9.79;100.00
55914;BME280;58179;48.776;9.124;2022-09-17T08:52:15;97216.13;;;9.91;100.00
55914;BME280;58179;48.776;9.124;2022-09-17T08:54:51;97203.72;;;9.97;100.00
55914;BME280;58179;48.776;9.124;2022-09-17T08:57:27;97220.41;;;9.97;100.00
55914;BME280;58179;48.776;9.124;2022-09-17T09:00:02;97219.59;;;9.97;100.00
55914;BME280;58179;48.776;9.124;2022-09-17T09:02:44;97227.34;;;10.08;100.00
55914;BME280;58179;48.776;9.124;2022-09-17T09:05:16;97227.66;;;10.12;100.00
55914;BME280;58179;48.776;9.124;2022-09-17T09:07:48;97221.31;;;10.13;100.00
55914;BME280;58179;48.776;9.124;2022-09-17T09:10:22;97217.72;;;10.24;100.00
55914;BME280;58179;48.776;9.124;2022-09-17T09:12:51;97223.13;;;10.39;100.00
55914;BME280;58179;48.776;9.124;2022-09-17T09:15:35;97220.13;;;10.63;100.00
55914;BME280;58179;48.776;9.124;2022-09-17T09:18:14;97226.78;;;10.65;100.00
55914;BME280;58179;48.776;9.124;2022-09-17T09:20:48;97219.88;;;10.64;100.00
55914;BME280;58179;48.776;9.124;2022-09-17T09:23:19;97210.91;;;10.70;100.00
55914;BME280;58179;48.776;9.124;2022-09-17T09:25:57;97220.47;;;10.76;100.00
55914;BME280;58179;48.776;9.124;2022-09-17T09:28:43;97223.75;;;10.89;100.00
55914;BME280;58179;48.776;9.124;2022-09-17T09:31:52;97216.88;;;10.93;100.00
55914;BME280;58179;48.776;9.124;2022-09-17T09:34:25;97217.25;;;11.16;100.00
55914;BME280;58179;48.776;9.124;2022-09-17T09:36:55;97214.03;;;11.09;100.00
55914;BME280;58179;48.776;9.124;2022-09-17T09:39:30;97212.44;;;11.03;100.00
55914;BME280;58179;48.776;9.124;2022-09-17T09:42:04;97210.88;;;11.12;100.00
55914;BME280;58179;48.776;9.124;2022-09-17T09:44:33;97215.88;;;11.04;100.00
55914;BME280;58179;48.776;9.124;2022-09-17T09:47:21;97215.56;;;11.00;100.00
55914;BME280;58179;48.776;9.124;2022-09-17T09:50:07;97223.28;;;11.02;100.00
55914;BME280;58179;48.776;9.124;2022-09-17T09:52:48;97219.50;;;10.93;100.00
55914;BME280;58179;48.776;9.124;2022-09-17T09:55:45;97219.09;;;10.64;100.00
55914;BME280;58179;48.776;9.124;2022-09-17T09:58:23;97221.06;;;10.46;100.00
55914;BME280;58179;48.776;9.124;2022-09-17T10:00:54;97224.06;;;10.55;100.00
55914;BME280;58179;48.776;9.124;2022-09-17T10:03:24;97221.25;;;10.72;100.00
55914;BME280;58179;48.776;9.124;2022-09-17T10:05:53;97231.41;;;10.90;100.00
55914;BME280;58179;48.776;9.124;2022-09-17T10:08:21;97227.47;;;10.93;100.00
55914;BME280;58179;48.776;9.124;2022-09-17T10:10:59;97223.53;;;11.05;100.00
55914;BME280;58179;48.776;9.124;2022-09-17T10:13:28;97224.63;;;11.04;100.00
55914;BME280;58179;48.776;9.124;2022-09-17T10:15:54;97217.75;;;11.13;100.00
55914;BME280;58179;48.776;9.124;2022-09-17T10:18:24;97221.00;;;11.25;100.00
55914;BME280;58179;48.776;9.124;2022-09-17T10:20:56;97218.91;;;11.33;100.00
55914;BME280;58179;48.776;9.124;2022-09-17T10:23:25;97225.81;;;11.34;100.00
55914;BME280;58179;48.776;9.124;2022-09-17T10:25:53;97229.53;;;11.38;100.00
55914;BME280;58179;48.776;9.124;2022-09-17T10:28:32;97216.31;;;11.48;100.00
55914;BME280;58179;48.776;9.124;2022-09-17T10:31:01;97228.56;;;11.64;100.00
55914;BME280;58179;48.776;9.124;2022-09-17T10:33:55;97223.88;;;11.86;100.00
55914;BME280;58179;48.776;9.124;2022-09-17T10:36:41;97213.81;;;12.09;100.00
55914;BME280;58179;48.776;9.124;2022-09-17T10:39:32;97208.47;;;12.19;100.00
55914;BME280;58179;48.776;9.124;2022-09-17T10:42:02;97194.69;;;12.01;100.00
55914;BME280;58179;48.776;9.124;2022-09-17T10:44:31;97216.97;;;11.90;100.00
55914;BME280;58179;48.776;9.124;2022-09-17T10:47:06;97219.06;;;11.83;100.00
55914;BME280;58179;48.776;9.124;2022-09-17T10:49:43;97216.97;;;11.85;100.00
55914;BME280;58179;48.776;9.124;2022-09-17T10:52:21;97216.41;;;11.83;100.00
55914;BME280;58179;48.776;9.124;2022-09-17T10:55:14;97216.72;;;12.02;100.00
55914;BME280;58179;48.776;9.124;2022-09-17T10:58:02;97198.94;;;12.23;100.00
55914;BME280;58179;48.776;9.124;2022-09-17T11:00:47;97196.81;;;12.05;100.00
55914;BME280;58179;48.776;9.124;2022-09-17T11:03:47;97201.59;;;12.33;100.00
55914;BME280;58179;48.776;9.124;2022-09-17T11:06:44;97192.53;;;12.49;100.00
55914;BME280;58179;48.776;9.124;2022-09-17T11:09:26;97187.25;;;12.29;100.00
55914;BME280;58179;48.776;9.124;2022-09-17T11:12:23;97190.97;;;12.38;100.00
55914;BME280;58179;48.776;9.124;2022-09-17T11:14:59;97177.16;;;12.46;100.00
55914;BME280;58179;48.776;9.124;2022-09-17T11:18:06;97192.81;;;12.58;100.00
55914;BME280;58179;48.776;9.124;2022-09-17T11:20:55;97188.81;;;12.70;100.00
55914;BME280;58179;48.776;9.124;2022-09-17T11:23:46;97180.34;;;12.43;100.00
55914;BME280;58179;48.776;9.124;2022-09-17T11:26:28;97185.66;;;12.53;100.00
55914;BME280;58179;48.776;9.124;2022-09-17T11:29:05;97173.66;;;12.71;100.00
55914;BME280;58179;48.776;9.124;2022-09-17T11:31:41;97168.34;;;12.76;100.00
55914;BME280;58179;48.776;9.124;2022-09-17T11:34:22;97182.66;;;12.85;100.00
55914;BME280;58179;48.776;9.124;2022-09-17T11:36:57;97165.38;;;12.93;94.88
55914;BME280;58179;48.776;9.124;2022-09-17T11:39:33;97168.56;;;12.90;98.89
55914;BME280;58179;48.776;9.124;2022-09-17T11:42:16;97171.81;;;12.76;100.00
55914;BME280;58179;48.776;9.124;2022-09-17T11:44:48;97174.22;;;12.63;95.98
55914;BME280;58179;48.776;9.124;2022-09-17T11:47:21;97168.63;;;12.64;97.49
55914;BME280;58179;48.776;9.124;2022-09-17T11:49:54;97163.84;;;12.76;98.90
55914;BME280;58179;48.776;9.124;2022-09-17T11:52:25;97160.00;;;13.03;99.78
55914;BME280;58179;48.776;9.124;2022-09-17T11:55:03;97157.03;;;13.25;99.36
55914;BME280;58179;48.776;9.124;2022-09-17T11:57:36;97156.53;;;13.62;100.00
55914;BME280;58179;48.776;9.124;2022-09-17T12:00:12;97162.69;;;13.57;89.34
55914;BME280;58179;48.776;9.124;2022-09-17T12:02:47;97157.06;;;13.64;99.46
55914;BME280;58179;48.776;9.124;2022-09-17T12:05:19;97155.59;;;13.86;95.71
55914;BME280;58179;48.776;9.124;2022-09-17T12:07:53;97152.66;;;13.88;89.78
55914;BME280;58179;48.776;9.124;2022-09-17T12:10:36;97143.94;;;13.77;92.69
55914;BME280;58179;48.776;9.124;2022-09-17T12:13:17;97140.41;;;13.48;88.35
55914;BME280;58179;48.776;9.124;2022-09-17T12:15:47;97139.66;;;13.42;95.35
55914;BME280;58179;48.776;9.124;2022-09-17T12:18:26;97147.31;;;13.49;98.71
55914;BME280;58179;48.776;9.124;2022-09-17T12:20:56;97150.69;;;13.21;87.65
55914;BME280;58179;48.776;9.124;2022-09-17T12:23:36;97163.19;;;13.15;94.34
55914;BME280;58179;48.776;9.124;2022-09-17T12:26:17;97155.78;;;12.97;94.81
55914;BME280;58179;48.776;9.124;2022-09-17T12:28:55;97152.59;;;13.00;92.56
55914;BME280;58179;48.776;9.124;2022-09-17T12:31:30;97147.00;;;13.06;88.28
55914;BME280;58179;48.776;9.124;2022-09-17T12:34:05;97148.91;;;13.50;90.15
55914;BME280;58179;48.776;9.124;2022-09-17T12:36:42;97159.25;;;13.56;82.28
55914;BME280;58179;48.776;9.124;2022-09-17T12:39:58;97158.19;;;13.57;81.70
55914;BME280;58179;48.776;9.124;2022-09-17T12:42:46;97180.31;;;13.48;83.49
55914;BME280;58179;48.776;9.124;2022-09-17T12:45:46;97190.81;;;13.19;86.55
55914;BME280;58179;48.776;9.124;2022-09-17T12:48:40;97177.63;;;12.78;90.20
55914;BME280;58179;48.776;9.124;2022-09-17T12:51:24;97176.09;;;12.27;93.18
55914;BME280;58179;48.776;9.124;2022-09-17T12:54:02;97166.03;;;11.88;93.37
55914;BME280;58179;48.776;9.124;2022-09-17T12:56:48;97175.81;;;11.73;97.92
55914;BME280;58179;48.776;9.124;2022-09-17T12:59:18;97177.34;;;11.53;100.00
55914;BME280;58179;48.776;9.124;2022-09-17T13:01:53;97190.34;;;11.50;100.00
55914;BME280;58179;48.776;9.124;2022-09-17T13:04:38;97191.56;;;11.22;100.00
55914;BME280;58179;48.776;9.124;2022-09-17T13:07:36;97193.56;;;10.95;100.00
55914;BME280;58179;48.776;9.124;2022-09-17T13:10:27;97200.56;;;10.69;100.00
55914;BME280;58179;48.776;9.124;2022-09-17T13:13:04;97196.28;;;10.58;100.00
55914;BME280;58179;48.776;9.124;2022-09-17T13:15:46;97198.69;;;10.59;100.00
55914;BME280;58179;48.776;9.124;2022-09-17T13:18:22;97189.38;;;10.52;100.00
55914;BME280;58179;48.776;9.124;2022-09-17T13:20:59;97178.69;;;10.36;100.00
55914;BME280;58179;48.776;9.124;2022-09-17T13:23:35;97186.84;;;10.30;100.00
55914;BME280;58179;48.776;9.124;2022-09-17T13:26:03;97186.84;;;10.30;100.00